createdAt,value
2022-11-25T01:01:28.949Z,100.00
2022-11-25T01:03:56.858Z,100.00
2022-11-25T01:06:26.015Z,100.00
2022-11-25T01:09:02.779Z,100.00
2022-11-25T01:11:31.554Z,100.00
2022-11-25T01:14:01.801Z,99.93
2022-11-25T01:16:32.943Z,99.71
2022-11-25T01:19:11.832Z,99.91
2022-11-25T01:21:51.790Z,99.90
2022-11-25T01:24:20.731Z,99.62
2022-11-25T01:26:49.085Z,100.00
2022-11-25T01:29:18.626Z,99.71
2022-11-25T01:31:49.705Z,99.70
2022-11-25T01:34:27.589Z,99.98
2022-11-25T01:36:58.953Z,100.00
2022-11-25T01:39:38.939Z,100.00
2022-11-25T01:42:09.849Z,100.00
2022-11-25T01:44:41.727Z,100.00
2022-11-25T01:47:16.236Z,100.00
2022-11-25T01:49:51.416Z,99.66
2022-11-25T01:52:30.338Z,99.66
2022-11-25T01:55:15.910Z,99.24
2022-11-25T01:57:49.372Z,99.22
2022-11-25T02:00:17.570Z,99.25
2022-11-25T02:02:50.652Z,99.14
2022-11-25T02:05:33.773Z,99.13
2022-11-25T02:08:27.107Z,98.68
2022-11-25T02:11:01.684Z,98.89
2022-11-25T02:13:33.082Z,98.92
2022-11-25T02:16:05.591Z,98.73
2022-11-25T02:18:33.506Z,98.70
2022-11-25T02:21:02.688Z,98.76
2022-11-25T02:23:41.080Z,98.52
2022-11-25T02:26:14.970Z,98.99
2022-11-25T02:28:45.095Z,98.82
2022-11-25T02:31:22.632Z,98.92
2022-11-25T02:33:56.946Z,98.71
2022-11-25T02:36:25.077Z,98.90
2022-11-25T02:39:04.942Z,98.57
2022-11-25T02:41:43.305Z,98.58
2022-11-25T02:44:11.829Z,98.47
2022-11-25T02:46:40.553Z,98.82
2022-11-25T02:49:11.873Z,98.40
2022-11-25T02:51:45.337Z,98.55
2022-11-25T02:54:17.313Z,98.48
2022-11-25T02:56:45.204Z,98.53
2022-11-25T02:59:13.644Z,98.20
2022-11-25T03:01:42.139Z,98.08
2022-11-25T03:04:17.948Z,98.04
2022-11-25T03:06:49.966Z,97.97
2022-11-25T03:09:28.822Z,98.07
2022-11-25T03:12:18.212Z,98.21
2022-11-25T03:14:47.752Z,98.25
2022-11-25T03:17:15.773Z,98.18
2022-11-25T03:19:44.072Z,97.50
2022-11-25T03:22:14.223Z,97.64
2022-11-25T03:24:45.755Z,97.92
2022-11-25T03:27:14.441Z,97.44
2022-11-25T03:29:50.336Z,97.17
2022-11-25T03:32:18.924Z,97.59
2022-11-25T03:34:51.170Z,97.21
2022-11-25T03:37:19.917Z,97.24
2022-11-25T03:39:49.210Z,96.84
2022-11-25T03:42:22.449Z,97.15
2022-11-25T03:44:50.995Z,96.92
2022-11-25T03:47:19.944Z,97.04
2022-11-25T03:49:49.228Z,96.86
2022-11-25T03:52:23.062Z,97.30
2022-11-25T03:54:55.794Z,97.50
2022-11-25T03:57:38.556Z,97.75
2022-11-25T04:00:15.817Z,98.63
2022-11-25T04:03:00.007Z,98.84
2022-11-25T04:05:28.674Z,98.78
2022-11-25T04:08:00.405Z,100.00
2022-11-25T04:10:31.790Z,99.79
2022-11-25T04:13:00.976Z,99.36
2022-11-25T04:15:47.671Z,99.11
2022-11-25T04:18:21.484Z,99.20
2022-11-25T04:20:55.238Z,99.36
2022-11-25T04:23:25.672Z,99.68
2022-11-25T04:26:05.443Z,99.59
2022-11-25T04:28:41.661Z,99.48
2022-11-25T04:31:32.151Z,99.38
2022-11-25T04:34:03.411Z,99.03
2022-11-25T04:36:42.217Z,98.73
2022-11-25T04:39:10.721Z,98.83
2022-11-25T04:41:39.714Z,99.28
2022-11-25T04:44:10.654Z,99.24
2022-11-25T04:46:40.916Z,99.75
2022-11-25T04:49:10.476Z,99.04
2022-11-25T04:51:40.313Z,98.89
2022-11-25T04:54:08.279Z,98.61
2022-11-25T04:56:38.320Z,99.12
2022-11-25T04:59:27.311Z,99.65
2022-11-25T05:01:55.291Z,100.00
2022-11-25T05:04:52.170Z,100.00
2022-11-25T05:07:21.946Z,100.00
2022-11-25T05:09:52.651Z,100.00
2022-11-25T05:12:38.420Z,100.00
2022-11-25T05:15:14.575Z,100.00
2022-11-25T05:18:05.997Z,100.00
2022-11-25T05:20:46.056Z,100.00
2022-11-25T05:23:22.239Z,100.00
2022-11-25T05:26:24.270Z,100.00
2022-11-25T05:29:18.467Z,100.00
2022-11-25T05:31:49.904Z,100.00
2022-11-25T05:34:24.555Z,100.00
2022-11-25T05:37:01.733Z,100.00
2022-11-25T10:00:33.481Z,95.46
2022-11-25T10:03:03.378Z,95.48
2022-11-25T10:06:10.645Z,95.51
2022-11-25T10:08:43.444Z,95.15
2022-11-25T10:11:40.504Z,94.59
2022-11-25T10:14:38.643Z,94.24
2022-11-25T10:18:03.373Z,94.35
2022-11-25T10:20:42.541Z,94.78
2022-11-25T10:24:12.092Z,94.59
2022-11-25T10:30:11.389Z,94.67
2022-11-25T10:33:02.292Z,94.39
2022-11-25T10:35:45.280Z,94.88
2022-11-25T10:38:24.422Z,94.83
2022-11-25T10:41:29.345Z,95.21
2022-11-25T10:51:12.846Z,94.96
2022-11-25T10:53:43.495Z,94.71
2022-11-25T10:56:21.019Z,94.99
2022-11-25T10:58:51.818Z,94.84
2022-11-25T11:01:26.887Z,95.19
2022-11-25T11:04:07.048Z,94.78
2022-11-25T11:06:40.335Z,94.94
2022-11-25T11:09:35.605Z,94.74
2022-11-25T11:12:16.592Z,94.71
2022-11-25T11:14:44.468Z,94.65
2022-11-25T11:17:37.108Z,94.44
2022-11-25T11:20:08.551Z,94.61
2022-11-25T11:22:37.250Z,94.72
2022-11-25T11:25:28.927Z,95.05
2022-11-25T11:27:57.097Z,94.85
2022-11-25T11:30:30.266Z,94.66
2022-11-25T11:33:06.545Z,94.77
2022-11-25T11:35:55.668Z,95.27
2022-11-25T11:38:25.054Z,95.08
2022-11-25T11:41:18.621Z,94.93
2022-11-25T11:44:16.078Z,95.31
2022-11-25T11:51:23.813Z,95.75
2022-11-25T11:53:58.092Z,95.72
2022-11-25T11:56:44.575Z,95.90
2022-11-25T11:59:22.040Z,95.96
2022-11-25T12:02:06.132Z,96.23
2022-11-25T12:04:52.730Z,96.12
2022-11-25T12:07:50.931Z,96.47
2022-11-25T12:10:41.361Z,96.43
2022-11-25T12:13:19.711Z,96.81
2022-11-25T12:16:03.224Z,96.87
2022-11-25T12:19:02.854Z,96.86
2022-11-25T12:22:00.780Z,97.02
2022-11-25T12:24:58.507Z,96.39
2022-11-25T12:27:41.065Z,96.56
2022-11-25T12:30:20.868Z,96.83
2022-11-25T12:33:00.631Z,96.94
2022-11-25T12:35:32.004Z,97.43
2022-11-25T12:38:11.690Z,97.42
2022-11-25T12:41:03.774Z,97.30
2022-11-25T12:43:46.670Z,97.34
2022-11-25T12:46:35.752Z,97.65
2022-11-25T12:49:04.481Z,97.55
2022-11-25T12:51:35.588Z,97.53
2022-11-25T12:54:22.257Z,97.45
2022-11-25T12:57:44.418Z,97.70
2022-11-25T13:00:41.176Z,97.81
2022-11-25T13:03:46.940Z,97.83
2022-11-25T13:06:23.546Z,97.48
2022-11-25T13:08:59.127Z,97.72
2022-11-25T13:11:41.614Z,97.27
2022-11-25T13:14:37.024Z,97.54
2022-11-25T13:17:18.451Z,97.19
2022-11-25T13:19:49.646Z,97.31
2022-11-25T13:22:18.923Z,97.00
2022-11-25T13:24:47.097Z,96.75
2022-11-25T13:27:54.093Z,97.21
2022-11-25T13:30:34.705Z,96.93
2022-11-25T13:33:09.507Z,97.03
2022-11-25T13:35:43.679Z,96.95
2022-11-25T13:38:37.477Z,96.31
2022-11-25T13:41:57.018Z,96.44
2022-11-25T13:45:12.134Z,96.67
2022-11-25T13:48:55.245Z,96.53
2022-11-25T13:51:47.300Z,96.67
2022-11-25T13:54:42.861Z,96.93
2022-11-25T13:57:42.547Z,96.65
2022-11-25T14:00:15.811Z,96.65
2022-11-25T14:02:50.033Z,96.80
2022-11-25T14:05:35.798Z,96.46
2022-11-25T14:08:24.898Z,96.43
2022-11-25T14:10:55.758Z,96.31
2022-11-25T14:13:50.127Z,96.49
2022-11-25T14:19:59.168Z,96.51
2022-11-25T14:23:03.377Z,96.07
2022-11-25T14:25:43.252Z,95.92
2022-11-25T14:28:27.018Z,95.38
2022-11-25T14:31:01.026Z,95.17
2022-11-25T14:33:33.415Z,95.02
2022-11-25T14:36:35.266Z,94.19
2022-11-25T14:39:14.151Z,93.97
2022-11-25T14:41:44.540Z,94.08
2022-11-25T14:44:18.703Z,93.65
2022-11-25T14:46:52.488Z,93.48
2022-11-25T14:49:46.606Z,93.57
2022-11-25T14:55:30.778Z,93.30
2022-11-25T14:57:59.043Z,93.45
2022-11-25T15:00:27.731Z,93.69
2022-11-25T15:03:00.836Z,94.25
2022-11-25T15:05:37.140Z,94.62
2022-11-25T15:08:13.729Z,94.96
2022-11-25T15:10:51.419Z,95.63
2022-11-25T15:13:22.151Z,95.75
2022-11-25T15:15:51.813Z,96.60
2022-11-25T15:18:21.652Z,97.03
2022-11-25T15:20:51.379Z,96.87
2022-11-25T15:23:32.443Z,96.74
2022-11-25T15:26:05.043Z,96.79
2022-11-25T15:28:52.117Z,97.00
2022-11-25T15:31:21.583Z,96.94
2022-11-25T15:33:54.512Z,96.84
2022-11-25T15:36:24.265Z,97.41
2022-11-25T15:38:52.678Z,97.63
2022-11-25T15:41:36.306Z,97.83
2022-11-25T15:44:15.669Z,98.17
2022-11-25T15:46:50.716Z,98.47
2022-11-25T15:49:18.625Z,98.53
2022-11-25T15:51:54.401Z,98.99
2022-11-25T15:54:29.246Z,98.81
2022-11-25T15:57:02.668Z,99.39
2022-11-25T15:59:42.953Z,99.42
2022-11-25T16:02:46.120Z,100.00
2022-11-25T16:05:14.728Z,100.00
2022-11-25T16:07:51.849Z,100.00
2022-11-25T16:10:33.805Z,100.00
2022-11-25T16:13:24.338Z,100.00
2022-11-25T16:15:53.372Z,100.00
2022-11-25T16:18:39.799Z,100.00
2022-11-25T16:21:12.799Z,100.00
2022-11-25T16:23:48.481Z,100.00
2022-11-25T16:26:24.612Z,100.00
2022-11-25T16:28:57.180Z,100.00
2022-11-25T16:31:25.466Z,100.00
2022-11-25T16:34:14.543Z,100.00
2022-11-25T16:36:43.546Z,100.00
2022-11-25T16:39:11.534Z,100.00
2022-11-25T16:41:41.119Z,100.00
2022-11-25T16:44:27.615Z,100.00
2022-11-25T16:46:55.788Z,100.00
2022-11-25T16:49:23.876Z,100.00
2022-11-25T16:51:51.976Z,100.00
2022-11-25T16:54:25.711Z,100.00
2022-11-25T16:56:54.121Z,100.00
2022-11-25T16:59:28.384Z,100.00
2022-11-25T17:01:56.362Z,100.00
2022-11-25T17:04:25.632Z,100.00
2022-11-25T17:07:30.443Z,100.00
2022-11-25T17:09:44.412Z,100.00
2022-11-25T17:12:18.462Z,100.00
2022-11-25T17:14:47.685Z,100.00
2022-11-25T17:17:24.406Z,100.00
2022-11-25T17:19:53.373Z,100.00
2022-11-25T17:22:24.329Z,100.00
2022-11-25T17:24:52.367Z,100.00
2022-11-25T17:27:31.033Z,100.00
2022-11-25T17:30:00.087Z,100.00
2022-11-25T17:32:28.437Z,100.00
2022-11-25T17:37:38.769Z,100.00
2022-11-25T17:40:07.563Z,100.00
2022-11-25T17:42:36.024Z,100.00
2022-11-25T17:45:04.484Z,100.00
2022-11-25T17:47:32.710Z,100.00
2022-11-25T17:50:02.035Z,100.00
2022-11-25T17:52:30.923Z,100.00
2022-11-25T17:54:58.819Z,100.00
2022-11-25T17:57:38.703Z,100.00
2022-11-25T18:00:13.019Z,100.00
2022-11-25T18:02:41.381Z,100.00
2022-11-25T18:05:17.620Z,100.00
2022-11-25T18:07:46.231Z,100.00
2022-11-25T18:10:18.821Z,100.00
2022-11-25T18:12:47.560Z,100.00
2022-11-25T18:15:27.771Z,100.00
2022-11-25T18:18:21.088Z,100.00
2022-11-25T18:20:50.283Z,100.00
2022-11-25T18:23:20.001Z,100.00
2022-11-25T18:25:50.931Z,100.00
2022-11-25T18:28:22.291Z,100.00
2022-11-25T18:30:50.244Z,100.00
2022-11-25T18:33:18.948Z,100.00
2022-11-25T18:35:47.310Z,100.00
2022-11-25T18:38:17.918Z,100.00
2022-11-25T18:40:51.874Z,100.00
2022-11-25T18:43:25.694Z,100.00
2022-11-25T18:45:54.296Z,100.00
2022-11-25T18:48:23.924Z,100.00
2022-11-25T18:50:53.142Z,100.00
2022-11-25T18:53:21.210Z,100.00
2022-11-25T18:55:49.258Z,100.00
2022-11-25T18:58:20.529Z,100.00
2022-11-25T19:00:51.252Z,100.00
2022-11-25T19:03:21.431Z,100.00
2022-11-25T19:05:50.271Z,100.00
2022-11-25T19:08:18.875Z,100.00
2022-11-25T19:10:47.660Z,100.00
2022-11-25T19:13:21.033Z,100.00
2022-11-25T19:15:49.543Z,100.00
2022-11-25T19:18:24.299Z,100.00
2022-11-25T19:20:52.678Z,100.00
2022-11-25T19:23:25.772Z,100.00
2022-11-25T19:26:00.107Z,100.00
2022-11-25T19:28:28.931Z,100.00
2022-11-25T19:30:59.576Z,100.00
2022-11-25T19:33:35.014Z,100.00
2022-11-25T19:36:03.116Z,100.00
2022-11-25T19:38:33.067Z,100.00
2022-11-25T19:41:01.657Z,100.00
2022-11-25T19:43:29.624Z,100.00
2022-11-25T19:45:57.855Z,100.00
2022-11-25T19:48:29.678Z,100.00
2022-11-25T19:51:02.443Z,100.00
2022-11-25T19:53:33.911Z,100.00
2022-11-25T19:56:04.942Z,100.00
2022-11-25T19:58:34.888Z,100.00
2022-11-25T20:01:04.058Z,100.00
2022-11-25T20:03:32.083Z,100.00
2022-11-25T20:06:00.097Z,100.00
2022-11-25T20:08:29.158Z,100.00
2022-11-25T20:10:57.849Z,100.00
2022-11-25T20:13:26.429Z,100.00
2022-11-25T20:15:56.070Z,100.00
2022-11-25T20:18:29.895Z,100.00
2022-11-25T20:21:08.589Z,100.00
2022-11-25T20:23:43.369Z,100.00
2022-11-25T20:26:27.512Z,100.00
2022-11-25T20:28:56.194Z,100.00
2022-11-25T20:31:30.698Z,100.00
2022-11-25T20:33:58.977Z,100.00
2022-11-25T20:36:31.171Z,100.00
2022-11-25T20:39:00.038Z,100.00
2022-11-25T20:41:28.293Z,100.00
2022-11-25T20:43:56.659Z,100.00
2022-11-25T20:46:27.229Z,100.00
2022-11-25T20:48:56.914Z,100.00
2022-11-25T20:51:24.931Z,100.00
2022-11-25T20:53:55.699Z,100.00
2022-11-25T20:56:24.936Z,100.00
2022-11-25T20:58:53.137Z,100.00
2022-11-25T21:01:21.122Z,100.00
2022-11-25T21:03:49.652Z,100.00
2022-11-25T21:06:20.505Z,100.00
2022-11-25T21:08:50.070Z,100.00
2022-11-25T21:11:21.823Z,100.00
2022-11-25T21:13:49.997Z,100.00
2022-11-25T21:16:18.236Z,100.00
2022-11-25T21:18:46.580Z,100.00
2022-11-25T21:21:29.347Z,100.00
2022-11-25T21:24:15.583Z,100.00
2022-11-25T21:26:43.445Z,100.00
2022-11-25T21:29:24.629Z,100.00
2022-11-25T21:31:53.234Z,100.00
2022-11-25T21:34:21.691Z,100.00
2022-11-25T21:36:52.006Z,100.00
2022-11-25T21:39:28.479Z,100.00
2022-11-25T21:41:59.328Z,100.00
2022-11-25T21:44:32.438Z,100.00
2022-11-25T21:47:00.687Z,100.00
2022-11-25T21:49:29.151Z,100.00
2022-11-25T21:51:57.669Z,100.00
2022-11-25T21:54:25.625Z,100.00
2022-11-25T21:56:58.125Z,100.00
2022-11-25T21:59:25.958Z,100.00
2022-11-25T22:01:55.546Z,100.00
2022-11-25T22:04:23.910Z,100.00
2022-11-25T22:06:52.133Z,100.00
2022-11-25T22:09:20.172Z,100.00
2022-11-25T22:11:48.727Z,100.00
2022-11-25T22:14:28.949Z,100.00
2022-11-25T22:16:56.991Z,100.00
2022-11-25T22:19:25.668Z,100.00
2022-11-25T22:21:53.786Z,100.00
2022-11-25T22:24:25.200Z,100.00
2022-11-25T22:26:57.736Z,100.00
2022-11-25T22:29:31.815Z,100.00
2022-11-25T22:31:59.793Z,100.00
2022-11-25T22:34:27.698Z,100.00
2022-11-25T22:36:55.551Z,100.00
2022-11-25T22:39:24.584Z,100.00
2022-11-25T22:42:01.142Z,100.00
2022-11-25T22:44:43.048Z,100.00
2022-11-25T22:47:35.422Z,100.00
2022-11-25T22:50:05.964Z,100.00
2022-11-25T22:52:35.590Z,100.00
2022-11-25T22:55:16.945Z,100.00
2022-11-25T22:57:45.013Z,100.00
2022-11-25T23:00:20.251Z,100.00
2022-11-25T23:02:48.514Z,100.00
2022-11-25T23:05:31.843Z,100.00
2022-11-25T23:08:02.415Z,100.00
2022-11-25T23:10:31.377Z,100.00
2022-11-25T23:12:59.230Z,100.00
2022-11-25T23:15:27.281Z,100.00
2022-11-25T23:18:00.056Z,100.00
2022-11-25T23:20:33.035Z,100.00
2022-11-25T23:23:18.216Z,100.00
2022-11-25T23:25:46.361Z,100.00
2022-11-25T23:28:14.918Z,100.00
2022-11-25T23:30:47.735Z,100.00
2022-11-25T23:33:25.920Z,100.00
2022-11-25T23:35:53.870Z,100.00
2022-11-25T23:38:22.975Z,100.00
2022-11-25T23:40:50.901Z,100.00
2022-11-25T23:43:18.908Z,100.00
2022-11-25T23:45:52.540Z,100.00
2022-11-25T23:48:23.035Z,100.00
2022-11-25T23:50:51.069Z,100.00
2022-11-25T23:53:26.149Z,100.00
2022-11-25T23:55:54.128Z,100.00
2022-11-25T23:58:29.623Z,100.00
